createdAt,value
2022-10-06T00:00:30.172Z,11.80
2022-10-06T00:02:30.075Z,11.80
2022-10-06T00:04:30.074Z,11.60
2022-10-06T00:06:30.095Z,11.60
2022-10-06T00:08:30.391Z,11.60
2022-10-06T00:10:30.086Z,11.60
2022-10-06T00:12:30.066Z,11.60
2022-10-06T00:14:30.086Z,11.60
2022-10-06T00:16:30.097Z,11.40
2022-10-06T00:18:30.591Z,11.40
2022-10-06T00:20:30.080Z,11.40
2022-10-06T00:22:30.102Z,11.40
2022-10-06T00:24:30.102Z,11.30
2022-10-06T00:26:30.116Z,11.20
2022-10-06T00:28:30.488Z,11.20
2022-10-06T00:30:30.130Z,11.20
2022-10-06T00:32:30.133Z,11.20
2022-10-06T00:34:30.112Z,11.20
2022-10-06T00:36:30.102Z,11.30
2022-10-06T00:38:30.421Z,11.30
2022-10-06T00:40:30.096Z,11.40
2022-10-06T00:42:30.127Z,11.40
2022-10-06T00:44:30.171Z,11.50
2022-10-06T00:46:30.211Z,11.60
2022-10-06T00:48:30.566Z,11.60
2022-10-06T00:50:30.109Z,11.60
2022-10-06T00:52:30.090Z,11.60
2022-10-06T00:54:30.131Z,11.60
2022-10-06T00:56:30.122Z,11.60
2022-10-06T00:58:30.541Z,11.60
2022-10-06T01:00:30.161Z,11.60
2022-10-06T01:02:30.240Z,11.60
2022-10-06T01:04:30.138Z,11.60
2022-10-06T01:06:30.157Z,11.60
2022-10-06T01:08:30.416Z,11.60
2022-10-06T01:10:30.118Z,11.60
2022-10-06T01:12:30.094Z,11.60
2022-10-06T01:14:30.097Z,11.50
2022-10-06T01:16:30.198Z,11.50
2022-10-06T01:18:30.494Z,11.50
2022-10-06T01:20:30.102Z,11.40
2022-10-06T01:22:30.238Z,11.40
2022-10-06T01:24:30.109Z,11.40
2022-10-06T01:26:30.145Z,11.30
2022-10-06T01:28:30.356Z,11.30
2022-10-06T01:30:30.200Z,11.20
2022-10-06T01:32:30.105Z,11.20
2022-10-06T01:35:00.246Z,11.20
2022-10-06T01:37:00.170Z,11.10
2022-10-06T01:39:00.260Z,11.10
2022-10-06T01:41:00.138Z,11.10
2022-10-06T01:43:00.191Z,11.00
2022-10-06T01:45:00.134Z,11.00
2022-10-06T01:47:00.162Z,10.90
2022-10-06T01:49:00.163Z,10.90
2022-10-06T01:51:00.157Z,11.00
2022-10-06T01:53:00.263Z,11.10
2022-10-06T01:55:00.172Z,11.00
2022-10-06T01:57:00.148Z,11.00
2022-10-06T01:59:00.152Z,11.00
2022-10-06T02:01:00.120Z,10.90
2022-10-06T02:03:01.257Z,10.90
2022-10-06T02:05:00.149Z,10.90
2022-10-06T02:07:00.146Z,10.90
2022-10-06T02:09:00.142Z,10.80
2022-10-06T02:11:00.166Z,10.80
2022-10-06T02:13:00.142Z,10.70
2022-10-06T02:15:00.168Z,10.60
2022-10-06T02:17:00.178Z,10.60
2022-10-06T02:19:00.221Z,10.60
2022-10-06T02:21:00.138Z,10.50
2022-10-06T02:23:00.180Z,10.50
2022-10-06T02:25:00.175Z,10.50
2022-10-06T02:27:00.166Z,10.40
2022-10-06T02:29:00.167Z,10.40
2022-10-06T02:31:00.221Z,10.40
2022-10-06T02:33:00.181Z,10.40
2022-10-06T02:35:00.208Z,10.40
2022-10-06T02:37:00.170Z,10.30
2022-10-06T02:39:00.337Z,10.30
2022-10-06T02:41:00.154Z,10.20
2022-10-06T02:43:00.163Z,10.20
2022-10-06T02:45:00.156Z,10.20
2022-10-06T02:47:00.189Z,10.10
2022-10-06T02:49:01.278Z,10.10
2022-10-06T02:51:00.154Z,10.20
2022-10-06T02:53:00.161Z,10.30
2022-10-06T02:55:00.171Z,10.30
2022-10-06T02:57:00.178Z,10.30
2022-10-06T02:59:00.172Z,10.40
2022-10-06T03:01:00.261Z,10.50
2022-10-06T03:03:00.222Z,10.50
2022-10-06T03:05:00.181Z,10.50
2022-10-06T03:07:00.350Z,10.70
2022-10-06T03:09:00.298Z,10.80
2022-10-06T03:11:00.174Z,10.80
2022-10-06T03:13:00.235Z,10.80
2022-10-06T03:15:00.229Z,10.80
2022-10-06T03:17:00.334Z,10.80
2022-10-06T03:19:00.206Z,10.70
2022-10-06T03:23:00.270Z,10.70
2022-10-06T03:25:00.224Z,10.70
2022-10-06T03:27:30.262Z,10.70
2022-10-06T03:29:30.404Z,10.70
2022-10-06T03:31:30.396Z,10.70
2022-10-06T03:33:30.265Z,10.80
2022-10-06T03:35:30.217Z,10.80
2022-10-06T03:37:30.340Z,10.80
2022-10-06T03:39:30.210Z,10.80
2022-10-06T03:43:29.792Z,10.70
2022-10-06T03:45:29.832Z,10.60
2022-10-06T03:47:29.815Z,10.50
2022-10-06T03:49:29.870Z,10.40
2022-10-06T03:51:29.769Z,10.40
2022-10-06T03:53:29.814Z,10.30
2022-10-06T03:55:29.818Z,10.30
2022-10-06T03:57:29.801Z,10.20
2022-10-06T03:59:29.774Z,10.20
2022-10-06T04:01:29.818Z,10.20
2022-10-06T04:03:29.902Z,10.20
2022-10-06T04:05:29.803Z,10.20
2022-10-06T04:07:29.904Z,10.20
2022-10-06T04:09:29.785Z,10.20
2022-10-06T04:11:29.822Z,10.20
2022-10-06T04:13:29.810Z,10.20
2022-10-06T04:15:29.786Z,10.30
2022-10-06T04:17:29.780Z,10.20
2022-10-06T04:19:29.809Z,10.20
2022-10-06T04:21:29.847Z,10.20
2022-10-06T04:23:29.776Z,10.20
2022-10-06T04:25:29.839Z,10.20
2022-10-06T04:27:29.971Z,10.20
2022-10-06T04:29:29.898Z,10.10
2022-10-06T04:31:29.928Z,10.10
2022-10-06T04:33:29.865Z,10.10
2022-10-06T04:35:29.847Z,10.20
2022-10-06T04:37:29.886Z,10.20
2022-10-06T04:39:29.812Z,10.20
2022-10-06T04:41:29.816Z,10.30
2022-10-06T04:43:29.884Z,10.30
2022-10-06T04:45:29.865Z,10.30
2022-10-06T04:47:29.907Z,10.30
2022-10-06T04:49:29.817Z,10.40
2022-10-06T04:51:29.828Z,10.50
2022-10-06T04:53:30.032Z,10.50
2022-10-06T04:55:29.821Z,10.60
2022-10-06T04:57:29.879Z,10.60
2022-10-06T04:59:29.810Z,10.60
2022-10-06T05:01:29.939Z,10.60
2022-10-06T05:03:29.822Z,10.60
2022-10-06T05:05:29.916Z,10.60
2022-10-06T05:07:29.816Z,10.60
2022-10-06T05:09:29.823Z,10.60
2022-10-06T05:11:29.823Z,10.70
2022-10-06T05:13:29.869Z,10.70
2022-10-06T05:15:29.864Z,10.70
2022-10-06T05:17:29.843Z,10.80
2022-10-06T05:19:59.860Z,10.90
2022-10-06T05:21:59.966Z,11.00
2022-10-06T05:23:59.837Z,11.10
2022-10-06T05:25:59.864Z,11.10
2022-10-06T05:27:59.994Z,11.10
2022-10-06T05:29:59.882Z,11.20
2022-10-06T05:31:59.903Z,11.30
2022-10-06T05:33:59.824Z,11.40
2022-10-06T05:35:59.934Z,11.60
2022-10-06T05:37:59.827Z,11.60
2022-10-06T05:39:59.888Z,11.60
2022-10-06T05:41:59.915Z,11.80
2022-10-06T05:43:59.890Z,11.90
2022-10-06T05:45:59.961Z,12.00
2022-10-06T05:47:59.963Z,12.00
2022-10-06T05:49:59.830Z,12.10
2022-10-06T05:51:59.886Z,12.20
2022-10-06T05:53:59.865Z,12.20
2022-10-06T05:55:59.851Z,12.20
2022-10-06T05:57:59.870Z,12.20
2022-10-06T05:59:59.892Z,12.20
2022-10-06T06:02:00.070Z,12.20
2022-10-06T06:03:59.927Z,12.10
2022-10-06T06:05:59.860Z,12.10
2022-10-06T06:07:59.862Z,12.10
2022-10-06T06:09:59.901Z,12.10
2022-10-06T06:12:00.143Z,12.10
2022-10-06T06:13:59.870Z,12.20
2022-10-06T06:15:59.950Z,12.20
2022-10-06T06:17:59.891Z,12.30
2022-10-06T06:19:59.948Z,12.40
2022-10-06T06:21:59.900Z,12.40
2022-10-06T06:23:59.896Z,12.60
2022-10-06T06:26:02.268Z,12.60
2022-10-06T06:27:59.937Z,12.70
2022-10-06T06:29:59.872Z,12.80
2022-10-06T06:31:59.988Z,12.80
2022-10-06T06:33:59.929Z,12.80
2022-10-06T06:35:59.864Z,12.80
2022-10-06T06:37:59.902Z,12.80
2022-10-06T06:39:59.879Z,12.90
2022-10-06T06:41:59.897Z,13.10
2022-10-06T06:43:59.942Z,13.10
2022-10-06T06:45:59.954Z,13.20
2022-10-06T06:47:59.898Z,13.20
2022-10-06T06:49:59.924Z,13.20
2022-10-06T06:51:59.888Z,13.30
2022-10-06T06:53:59.890Z,13.30
2022-10-06T06:55:59.882Z,13.30
2022-10-06T06:57:59.924Z,13.60
2022-10-06T07:00:00.012Z,13.60
2022-10-06T07:01:59.971Z,13.60
2022-10-06T07:03:59.932Z,13.70
2022-10-06T07:05:59.904Z,13.80
2022-10-06T07:07:59.900Z,13.90
2022-10-06T07:09:59.977Z,13.90
2022-10-06T07:11:59.925Z,13.90
2022-10-06T07:13:59.910Z,14.00
2022-10-06T07:16:29.986Z,14.00
2022-10-06T07:18:30.157Z,14.10
2022-10-06T07:20:29.903Z,14.20
2022-10-06T07:22:29.896Z,14.20
2022-10-06T07:24:29.908Z,14.20
2022-10-06T07:26:29.924Z,14.20
2022-10-06T07:28:29.992Z,14.20
2022-10-06T07:30:29.928Z,14.20
2022-10-06T07:32:29.923Z,14.30
2022-10-06T07:34:30.021Z,14.30
2022-10-06T07:36:29.925Z,14.40
2022-10-06T07:38:29.956Z,14.40
2022-10-06T07:40:29.961Z,14.40
2022-10-06T07:42:29.949Z,14.40
2022-10-06T07:44:30.000Z,14.40
2022-10-06T07:46:29.982Z,14.40
2022-10-06T07:48:30.016Z,14.50
2022-10-06T07:50:30.005Z,14.50
2022-10-06T07:52:29.989Z,14.50
2022-10-06T07:54:29.961Z,14.50
2022-10-06T07:56:29.962Z,14.50
2022-10-06T07:58:30.040Z,14.50
2022-10-06T08:00:30.049Z,14.60
2022-10-06T08:02:33.003Z,14.60
2022-10-06T08:04:29.954Z,14.50
2022-10-06T08:06:30.102Z,14.60
2022-10-06T08:08:29.966Z,14.60
2022-10-06T08:10:29.994Z,14.60
2022-10-06T08:12:29.994Z,14.60
2022-10-06T08:14:29.983Z,14.70
2022-10-06T08:16:30.258Z,14.70
2022-10-06T08:18:45.476Z,14.70
2022-10-06T08:20:30.024Z,15.00
2022-10-06T08:22:29.969Z,14.90
2022-10-06T08:24:37.865Z,14.80
2022-10-06T08:26:29.978Z,15.00
2022-10-06T08:28:30.029Z,15.00
2022-10-06T08:30:29.961Z,15.00
2022-10-06T08:32:29.951Z,15.00
2022-10-06T08:34:30.046Z,15.10
2022-10-06T08:36:31.549Z,15.10
2022-10-06T08:38:30.043Z,15.00
2022-10-06T08:40:30.100Z,15.00
2022-10-06T08:42:29.983Z,15.00
2022-10-06T08:44:30.009Z,15.10
2022-10-06T08:46:29.981Z,15.10
2022-10-06T08:48:30.028Z,15.00
2022-10-06T08:50:29.974Z,15.00
2022-10-06T08:52:29.972Z,15.30
2022-10-06T08:54:30.007Z,15.50
2022-10-06T08:56:30.013Z,15.50
2022-10-06T08:58:32.436Z,15.60
2022-10-06T09:00:30.025Z,15.60
2022-10-06T09:02:30.082Z,15.60
2022-10-06T09:04:29.964Z,15.60
2022-10-06T09:06:30.025Z,15.60
2022-10-06T09:08:29.977Z,15.70
2022-10-06T09:10:30.064Z,15.70
2022-10-06T09:12:59.973Z,15.80
2022-10-06T09:15:00.026Z,15.70
2022-10-06T09:17:00.088Z,15.60
2022-10-06T09:19:09.001Z,15.60
2022-10-06T09:21:00.005Z,15.50
2022-10-06T09:23:00.044Z,15.30
2022-10-06T09:25:00.108Z,15.20
2022-10-06T09:27:00.003Z,15.20
2022-10-06T09:29:00.012Z,15.20
2022-10-06T09:31:00.205Z,15.20
2022-10-06T09:33:00.011Z,15.10
2022-10-06T09:35:00.081Z,15.20
2022-10-06T09:37:01.753Z,15.20
2022-10-06T09:39:00.070Z,15.20
2022-10-06T09:41:00.060Z,15.20
2022-10-06T09:43:00.064Z,15.20
2022-10-06T09:45:00.040Z,15.20
2022-10-06T09:47:00.054Z,15.20
2022-10-06T09:49:00.011Z,15.30
2022-10-06T09:51:00.001Z,15.40
2022-10-06T09:53:00.002Z,15.50
2022-10-06T09:55:00.067Z,15.70
2022-10-06T09:57:00.094Z,15.70
2022-10-06T09:59:00.149Z,15.90
2022-10-06T10:01:00.145Z,16.00
2022-10-06T10:03:00.125Z,16.00
2022-10-06T10:05:00.085Z,16.00
2022-10-06T10:07:00.258Z,16.00
2022-10-06T10:09:00.071Z,16.00
2022-10-06T10:11:00.097Z,16.00
2022-10-06T10:13:00.158Z,15.80
2022-10-06T10:15:00.100Z,15.80
2022-10-06T10:17:00.152Z,15.90
2022-10-06T10:19:00.028Z,16.20
2022-10-06T10:21:00.038Z,16.20
2022-10-06T10:25:00.091Z,16.10
2022-10-06T10:27:00.333Z,16.20
2022-10-06T10:29:00.197Z,16.30
2022-10-06T10:31:00.193Z,16.40
2022-10-06T10:39:00.147Z,17.20
2022-10-06T10:41:00.107Z,17.30
2022-10-06T10:45:00.324Z,17.70
2022-10-06T10:47:01.008Z,17.80
2022-10-06T11:15:23.712Z,19.20
2022-10-06T11:17:23.706Z,19.40
2022-10-06T11:19:23.720Z,18.90
2022-10-06T11:21:23.705Z,18.90
2022-10-06T11:23:23.802Z,19.00
2022-10-06T11:25:23.716Z,19.10
2022-10-06T11:27:23.763Z,18.60
2022-10-06T11:29:23.715Z,18.50
2022-10-06T11:31:23.805Z,18.50
2022-10-06T11:33:23.730Z,18.50
2022-10-06T11:35:23.688Z,18.00
2022-10-06T11:37:23.779Z,17.80
2022-10-06T11:39:23.733Z,17.80
2022-10-06T11:41:23.795Z,17.70
2022-10-06T11:43:23.750Z,17.70
2022-10-06T11:45:23.765Z,17.60
2022-10-06T11:47:35.046Z,17.30
2022-10-06T11:49:23.712Z,17.30
2022-10-06T11:51:23.756Z,17.00
2022-10-06T11:53:23.735Z,16.90
2022-10-06T11:55:23.803Z,16.80
2022-10-06T11:57:29.322Z,17.00
2022-10-06T11:59:23.770Z,17.00
2022-10-06T12:01:23.726Z,16.90
2022-10-06T12:03:23.842Z,16.80
2022-10-06T12:05:54.785Z,16.60
2022-10-06T12:07:23.731Z,16.60
2022-10-06T12:09:23.726Z,16.50
2022-10-06T12:11:23.718Z,16.40
2022-10-06T12:14:12.384Z,16.40
2022-10-06T12:17:23.738Z,16.40
2022-10-06T12:19:23.724Z,16.50
2022-10-06T12:21:23.755Z,16.70
2022-10-06T12:23:23.779Z,16.90
2022-10-06T12:25:23.766Z,17.40
2022-10-06T12:27:25.913Z,17.40
2022-10-06T12:29:23.802Z,17.60
2022-10-06T12:31:23.767Z,17.90
2022-10-06T12:33:23.750Z,18.20
2022-10-06T12:35:23.786Z,18.20
2022-10-06T12:37:23.758Z,18.30
2022-10-06T12:39:23.809Z,18.50
2022-10-06T12:41:23.787Z,18.60
2022-10-06T12:43:53.793Z,18.80
2022-10-06T12:45:53.841Z,18.80
2022-10-06T12:47:53.804Z,19.70
2022-10-06T12:49:53.791Z,19.70
2022-10-06T12:51:57.691Z,20.40
2022-10-06T12:53:53.832Z,20.40
2022-10-06T12:55:53.814Z,21.00
2022-10-06T12:57:53.761Z,21.20
2022-10-06T12:59:53.808Z,21.20
2022-10-06T13:01:53.787Z,21.10
2022-10-06T13:03:53.901Z,20.60
2022-10-06T13:05:53.780Z,20.00
2022-10-06T13:07:53.831Z,20.00
2022-10-06T13:09:53.818Z,19.90
2022-10-06T13:11:53.850Z,19.30
2022-10-06T13:13:53.792Z,19.30
2022-10-06T13:15:53.811Z,19.60
2022-10-06T13:17:53.848Z,19.60
2022-10-06T13:19:53.846Z,19.30
2022-10-06T13:21:53.833Z,19.20
2022-10-06T13:23:53.797Z,19.20
2022-10-06T13:25:53.829Z,19.30
2022-10-06T13:27:53.792Z,19.30
2022-10-06T13:29:53.799Z,19.00
2022-10-06T13:31:54.050Z,19.00
2022-10-06T13:33:53.846Z,19.00
2022-10-06T13:35:53.862Z,19.00
2022-10-06T13:37:53.810Z,18.50
2022-10-06T13:39:53.903Z,18.20
2022-10-06T13:41:53.901Z,17.90
2022-10-06T13:43:53.888Z,17.60
2022-10-06T13:45:54.037Z,17.60
2022-10-06T13:47:53.965Z,17.50
2022-10-06T13:49:53.943Z,17.30
2022-10-06T13:51:53.829Z,17.30
2022-10-06T13:53:53.805Z,17.40
2022-10-06T13:55:53.810Z,17.40
2022-10-06T13:57:53.930Z,17.40
2022-10-06T13:59:53.928Z,17.30
2022-10-06T14:01:54.024Z,17.50
2022-10-06T14:03:53.950Z,17.50
2022-10-06T14:05:53.850Z,17.40
2022-10-06T14:07:53.891Z,17.40
2022-10-06T14:09:53.876Z,17.60
2022-10-06T14:11:53.876Z,17.60
2022-10-06T14:13:53.832Z,17.60
2022-10-06T14:15:54.147Z,17.60
2022-10-06T14:17:53.951Z,17.40
2022-10-06T14:19:54.020Z,17.20
2022-10-06T14:21:53.885Z,17.20
2022-10-06T14:23:53.889Z,17.20
2022-10-06T14:25:54.009Z,17.10
2022-10-06T14:27:54.104Z,17.30
2022-10-06T14:29:53.938Z,17.40
2022-10-06T14:31:54.041Z,17.60
2022-10-06T14:33:53.975Z,17.60
2022-10-06T14:35:54.897Z,17.60
2022-10-06T14:37:53.905Z,17.60
2022-10-06T14:40:23.937Z,17.50
2022-10-06T14:42:23.951Z,17.50
2022-10-06T14:44:23.954Z,17.40
2022-10-06T14:46:23.981Z,17.40
2022-10-06T14:48:23.960Z,17.20
2022-10-06T14:50:23.993Z,17.20
2022-10-06T14:52:23.912Z,17.20
2022-10-06T14:54:24.002Z,17.10
2022-10-06T14:56:23.918Z,17.10
2022-10-06T14:58:23.953Z,17.20
2022-10-06T15:00:23.951Z,17.20
2022-10-06T15:02:23.987Z,17.20
2022-10-06T15:04:23.997Z,17.10
2022-10-06T15:06:24.006Z,16.80
2022-10-06T15:08:23.958Z,16.60
2022-10-06T15:10:23.888Z,16.60
2022-10-06T15:12:24.190Z,16.60
2022-10-06T15:14:23.918Z,16.30
2022-10-06T15:16:24.001Z,16.20
2022-10-06T15:18:24.017Z,16.00
2022-10-06T15:20:24.026Z,16.00
2022-10-06T15:22:24.003Z,16.00
2022-10-06T15:24:24.060Z,16.00
2022-10-06T15:26:23.952Z,15.90
2022-10-06T15:28:23.990Z,15.80
2022-10-06T15:30:23.957Z,15.80
2022-10-06T15:32:24.012Z,15.60
2022-10-06T15:34:24.027Z,15.40
2022-10-06T15:36:24.011Z,15.40
2022-10-06T15:38:23.914Z,15.40
2022-10-06T15:40:23.929Z,15.20
2022-10-06T15:42:24.012Z,15.20
2022-10-06T15:44:24.088Z,15.10
2022-10-06T15:46:24.027Z,15.00
2022-10-06T15:48:23.982Z,15.00
2022-10-06T15:50:24.014Z,15.00
2022-10-06T15:52:24.044Z,15.00
2022-10-06T15:54:24.068Z,14.90
2022-10-06T15:56:24.049Z,14.70
2022-10-06T15:58:24.086Z,14.70
2022-10-06T16:00:24.001Z,14.60
2022-10-06T16:02:24.136Z,14.50
2022-10-06T16:04:23.974Z,14.40
2022-10-06T16:06:24.037Z,14.40
2022-10-06T16:08:24.043Z,14.40
2022-10-06T16:10:24.032Z,14.40
2022-10-06T16:12:23.921Z,14.30
2022-10-06T16:14:23.934Z,14.20
2022-10-06T16:16:24.070Z,14.20
2022-10-06T16:18:24.017Z,14.20
2022-10-06T16:20:24.016Z,14.10
2022-10-06T16:22:24.540Z,14.00
2022-10-06T16:24:23.942Z,13.90
2022-10-06T16:26:23.955Z,13.90
2022-10-06T16:28:24.016Z,13.80
2022-10-06T16:30:23.987Z,13.70
2022-10-06T16:32:23.973Z,13.60
2022-10-06T16:34:24.021Z,13.40
2022-10-06T16:38:54.080Z,13.30
2022-10-06T16:40:54.107Z,13.20
2022-10-06T16:42:54.122Z,13.00
2022-10-06T16:44:54.053Z,12.90
2022-10-06T16:46:54.068Z,12.90
2022-10-06T16:48:54.044Z,12.90
2022-10-06T16:50:54.033Z,12.80
2022-10-06T16:52:54.038Z,12.60
2022-10-06T16:54:54.028Z,12.70
2022-10-06T16:56:54.099Z,12.70
2022-10-06T16:58:54.026Z,12.70
2022-10-06T17:00:54.027Z,12.70
2022-10-06T17:02:54.046Z,12.60
2022-10-06T17:04:54.089Z,12.60
2022-10-06T17:06:54.080Z,12.60
2022-10-06T17:08:54.066Z,12.50
2022-10-06T17:10:54.082Z,12.50
2022-10-06T17:12:54.243Z,12.40
2022-10-06T17:14:53.979Z,12.40
2022-10-06T17:16:54.035Z,12.40
2022-10-06T17:18:54.078Z,12.20
2022-10-06T17:20:54.044Z,12.10
2022-10-06T17:22:54.087Z,12.00
2022-10-06T17:24:54.169Z,12.00
2022-10-06T17:26:54.121Z,12.00
2022-10-06T17:28:54.023Z,11.90
2022-10-06T17:30:54.035Z,11.80
2022-10-06T17:32:54.073Z,11.80
2022-10-06T17:34:54.082Z,11.80
2022-10-06T17:36:55.107Z,11.80
2022-10-06T17:38:54.087Z,11.80
2022-10-06T17:40:54.125Z,11.80
2022-10-06T17:42:54.164Z,11.80
2022-10-06T17:44:54.235Z,11.80
2022-10-06T17:46:54.089Z,11.90
2022-10-06T17:48:57.720Z,11.90
2022-10-06T17:50:54.153Z,11.90
2022-10-06T17:52:54.202Z,12.00
2022-10-06T17:54:54.114Z,12.00
2022-10-06T17:56:54.162Z,12.00
2022-10-06T17:58:54.130Z,12.10
2022-10-06T18:00:54.034Z,12.10
2022-10-06T18:02:54.107Z,12.20
2022-10-06T18:05:05.284Z,12.20
2022-10-06T18:07:05.221Z,12.20
2022-10-06T18:09:05.250Z,12.30
2022-10-06T18:11:05.301Z,12.30
2022-10-06T18:13:05.308Z,12.30
2022-10-06T18:15:05.299Z,12.40
2022-10-06T18:17:05.342Z,12.40
2022-10-06T18:19:05.271Z,12.40
2022-10-06T18:21:05.207Z,12.40
2022-10-06T18:23:05.253Z,12.40
2022-10-06T18:25:06.347Z,12.40
2022-10-06T18:27:05.327Z,12.40
2022-10-06T18:29:05.315Z,12.40
2022-10-06T18:31:05.347Z,12.40
2022-10-06T18:37:05.239Z,12.40
2022-10-06T18:39:05.717Z,12.40
2022-10-06T18:41:05.388Z,12.40
2022-10-06T18:43:05.329Z,12.40
2022-10-06T18:45:05.348Z,12.40
2022-10-06T18:47:05.339Z,12.40
2022-10-06T18:49:05.347Z,12.40
2022-10-06T18:51:05.245Z,12.40
2022-10-06T18:53:05.301Z,12.40
2022-10-06T18:55:05.306Z,12.50
2022-10-06T18:57:05.329Z,12.50
2022-10-06T18:59:05.310Z,12.50
2022-10-06T19:01:05.442Z,12.50
2022-10-06T19:03:05.263Z,12.50
2022-10-06T19:05:05.312Z,12.50
2022-10-06T19:07:05.389Z,12.60
2022-10-06T19:09:05.279Z,12.60
2022-10-06T19:11:05.330Z,12.50
2022-10-06T19:13:05.264Z,12.50
2022-10-06T19:15:05.334Z,12.50
2022-10-06T19:19:35.355Z,12.60
2022-10-06T19:21:35.273Z,12.60
2022-10-06T19:23:35.256Z,12.60
2022-10-06T19:25:35.343Z,12.50
2022-10-06T19:27:35.335Z,12.50
2022-10-06T19:29:35.252Z,12.50
2022-10-06T19:31:35.413Z,12.50
2022-10-06T19:33:35.381Z,12.40
2022-10-06T19:35:35.373Z,12.40
2022-10-06T19:37:35.391Z,12.40
2022-10-06T19:39:35.305Z,12.40
2022-10-06T19:41:35.307Z,12.40
2022-10-06T19:43:35.321Z,12.40
2022-10-06T19:45:35.352Z,12.40
2022-10-06T19:47:35.382Z,12.40
2022-10-06T19:49:35.393Z,12.40
2022-10-06T19:51:35.311Z,12.40
2022-10-06T19:53:35.408Z,12.40
2022-10-06T19:55:35.396Z,12.40
2022-10-06T19:57:35.351Z,12.40
2022-10-06T19:59:35.346Z,12.40
2022-10-06T20:01:35.449Z,12.30
2022-10-06T20:03:35.276Z,12.30
2022-10-06T20:05:36.313Z,12.30
2022-10-06T20:07:35.356Z,12.30
2022-10-06T20:09:35.317Z,12.20
2022-10-06T20:11:36.354Z,12.20
2022-10-06T20:13:35.347Z,12.20
2022-10-06T20:15:35.390Z,12.20
2022-10-06T20:17:35.457Z,12.20
2022-10-06T20:19:35.425Z,12.20
2022-10-06T20:21:35.412Z,12.20
2022-10-06T20:23:35.376Z,12.20
2022-10-06T20:25:35.332Z,12.20
2022-10-06T20:27:35.378Z,12.30
2022-10-06T20:29:35.385Z,12.30
2022-10-06T20:31:35.409Z,12.20
2022-10-06T20:33:35.448Z,12.30
2022-10-06T20:35:35.417Z,12.30
2022-10-06T20:37:35.324Z,12.20
2022-10-06T20:39:35.321Z,12.20
2022-10-06T20:41:35.355Z,12.20
2022-10-06T20:43:35.383Z,12.20
2022-10-06T20:45:35.430Z,12.20
2022-10-06T20:47:35.476Z,12.20
2022-10-06T20:49:35.392Z,12.10
2022-10-06T20:51:35.456Z,12.10
2022-10-06T20:53:35.359Z,12.10
2022-10-06T20:55:35.334Z,12.00
2022-10-06T20:57:35.423Z,12.00
2022-10-06T20:59:35.653Z,12.00
2022-10-06T21:01:35.555Z,12.00
2022-10-06T21:03:35.475Z,12.00
2022-10-06T21:05:35.554Z,12.00
2022-10-06T21:07:35.487Z,12.00
2022-10-06T21:09:35.502Z,12.00
2022-10-06T21:11:35.602Z,12.00
2022-10-06T21:14:05.489Z,12.00
2022-10-06T21:16:05.598Z,12.00
2022-10-06T21:18:05.501Z,12.00
2022-10-06T21:20:05.482Z,11.90
2022-10-06T21:22:05.504Z,11.90
2022-10-06T21:24:05.538Z,11.90
2022-10-06T21:26:05.482Z,11.90
2022-10-06T21:28:05.541Z,11.90
2022-10-06T21:30:05.498Z,11.80
2022-10-06T21:32:05.516Z,11.80
2022-10-06T21:34:05.522Z,11.80
2022-10-06T21:36:05.520Z,11.80
2022-10-06T21:38:05.534Z,11.80
2022-10-06T21:40:05.524Z,11.80
2022-10-06T21:42:05.608Z,11.80
2022-10-06T21:44:05.548Z,11.80
2022-10-06T21:46:27.427Z,11.70
2022-10-06T21:48:05.532Z,11.70
2022-10-06T21:50:05.627Z,11.80
2022-10-06T21:52:05.594Z,11.80
2022-10-06T21:54:05.537Z,11.80
2022-10-06T21:56:05.529Z,11.80
2022-10-06T21:58:05.658Z,11.80
2022-10-06T22:00:05.543Z,11.80
2022-10-06T22:02:05.612Z,11.80
2022-10-06T22:04:05.516Z,11.80
2022-10-06T22:06:05.554Z,11.80
2022-10-06T22:08:05.512Z,11.80
2022-10-06T22:10:05.523Z,11.80
2022-10-06T22:12:05.519Z,11.80
2022-10-06T22:14:05.512Z,11.80
2022-10-06T22:16:05.626Z,11.80
2022-10-06T22:18:05.508Z,11.80
2022-10-06T22:20:05.526Z,11.80
2022-10-06T22:22:05.567Z,11.80
2022-10-06T22:24:05.530Z,11.80
2022-10-06T22:26:05.522Z,11.80
2022-10-06T22:28:05.574Z,11.70
2022-10-06T22:30:05.590Z,11.80
2022-10-06T22:32:05.531Z,11.80
2022-10-06T22:34:05.559Z,11.80
2022-10-06T22:36:05.583Z,11.70
2022-10-06T22:38:05.528Z,11.70
2022-10-06T22:40:07.741Z,11.70
2022-10-06T22:42:05.538Z,11.70
2022-10-06T22:46:05.545Z,11.70
2022-10-06T22:48:05.528Z,11.70
2022-10-06T22:50:05.603Z,11.70
2022-10-06T22:52:05.588Z,11.80
2022-10-06T22:54:05.541Z,11.70
2022-10-06T22:56:05.573Z,11.70
2022-10-06T22:58:05.621Z,11.70
2022-10-06T23:00:05.642Z,11.70
2022-10-06T23:02:05.573Z,11.80
2022-10-06T23:04:05.542Z,11.80
2022-10-06T23:06:05.584Z,11.80
2022-10-06T23:08:05.630Z,11.80
2022-10-06T23:10:35.592Z,11.80
2022-10-06T23:12:35.537Z,11.80
2022-10-06T23:14:35.566Z,11.80
2022-10-06T23:16:35.672Z,11.80
2022-10-06T23:18:35.564Z,11.80
2022-10-06T23:20:35.570Z,11.80
2022-10-06T23:22:35.563Z,11.80
2022-10-06T23:24:35.636Z,11.70
2022-10-06T23:26:35.566Z,11.80
2022-10-06T23:28:35.732Z,11.80
2022-10-06T23:30:35.572Z,11.80
2022-10-06T23:32:35.567Z,11.80
2022-10-06T23:34:35.623Z,11.80
2022-10-06T23:36:35.592Z,11.80
2022-10-06T23:38:35.582Z,11.80
2022-10-06T23:40:35.593Z,11.90
2022-10-06T23:42:35.584Z,11.90
2022-10-06T23:44:35.641Z,11.90
2022-10-06T23:46:35.601Z,11.90
2022-10-06T23:48:35.596Z,11.90
2022-10-06T23:50:35.676Z,11.90
2022-10-06T23:52:35.575Z,11.80
2022-10-06T23:54:35.579Z,11.80
2022-10-06T23:56:35.603Z,11.80
2022-10-06T23:58:35.568Z,11.80
